Terminal Aerodrome Forecast
Issued by NWS Wakefield, VA

Home | Current Version | Previous Version | Text Only | Print | Product List | Glossary On
Versions: 1 2 3 4 5 6 7 8 9 10 11 12 13 14 15 16 17 18 19
000
FTUS41 KAKQ 311100 AAD
TAFECG
TAF AMD
KECG 311102Z 3111/0106 20003KT 3SM BR BKN250
      TEMPO 3111/3112 1/2SM FG
     FM311200 20007KT P6SM BKN250
     FM311800 18012KT P6SM SCT040
     FM312300 18005KT P6SM BKN250=

USA.gov is the U.S. government's official web portal to all federal, state and local government web resources and services.